Time;durP1;ratioP1;P1;durP2;ratioP2;P2;SDS_P1;SDS_P2;PMS_P1;PMS_P2;Temp;Humidity;BMP_temperature;BMP_pressure;BME280_temperature;BME280_humidity;BME280_pressure;Samples;Min_cycle;Max_cycle;Signal;HPM_P1;HPM_P2
2021/04/09 00:00:05;;;;;;;8.20;3.02;;;0.90;99.90;;;;;;1969400;73;21049;-76
2021/04/09 00:02:31;;;;;;;5.00;3.40;;;0.90;99.90;;;;;;1966954;72;21073;-76
2021/04/09 00:04:57;;;;;;;4.85;2.85;;;0.90;99.90;;;;;;1969175;73;21034;-76
2021/04/09 00:07:23;;;;;;;5.67;2.70;;;0.90;99.90;;;;;;1969349;73;21049;-76
2021/04/09 00:09:49;;;;;;;5.62;3.05;;;0.80;99.90;;;;;;1969098;73;21414;-76
2021/04/09 00:12:15;;;;;;;4.20;2.30;;;0.80;99.90;;;;;;1969406;73;21489;-76
2021/04/09 00:14:41;;;;;;;3.45;2.70;;;0.70;99.90;;;;;;1969233;73;21535;-76
2021/04/09 00:17:08;;;;;;;8.65;2.95;;;0.70;99.90;;;;;;1969227;73;21131;-76
2021/04/09 00:19:34;;;;;;;3.15;2.58;;;0.60;99.90;;;;;;1969172;73;21122;-76
2021/04/09 00:22:02;;;;;;;6.78;2.40;;;0.60;99.90;;;;;;1969382;73;21134;-76
2021/04/09 00:24:28;;;;;;;2.80;2.30;;;0.60;99.90;;;;;;1969119;73;21498;-77
2021/04/09 00:26:54;;;;;;;6.80;2.98;;;0.50;99.90;;;;;;1969185;73;21566;-77
2021/04/09 00:29:20;;;;;;;5.70;2.70;;;0.60;99.90;;;;;;1971298;72;21072;-75
2021/04/09 00:31:46;;;;;;;3.75;2.85;;;0.50;99.90;;;;;;1972566;72;21127;-77
2021/04/09 00:34:12;;;;;;;6.80;3.50;;;0.50;99.90;;;;;;1970791;72;21052;-77
2021/04/09 00:36:38;;;;;;;6.42;3.00;;;0.50;99.90;;;;;;1971756;72;21126;-75
2021/04/09 00:39:06;;;;;;;5.50;2.60;;;0.50;99.90;;;;;;1969290;73;21022;-77
2021/04/09 00:41:32;;;;;;;8.05;3.47;;;0.40;99.90;;;;;;1966951;72;21069;-76
2021/04/09 00:43:58;;;;;;;3.85;2.92;;;0.40;99.90;;;;;;1969334;72;21045;-76
2021/04/09 00:46:24;;;;;;;6.25;3.10;;;0.40;99.90;;;;;;1969198;73;21045;-76
2021/04/09 00:48:50;;;;;;;3.25;2.70;;;0.40;99.90;;;;;;1969429;73;21065;-76
2021/04/09 00:51:16;;;;;;;6.85;3.37;;;0.30;99.90;;;;;;1969314;73;21512;-75
2021/04/09 00:53:43;;;;;;;4.35;2.90;;;0.30;99.90;;;;;;1969276;73;21473;-76
2021/04/09 00:56:09;;;;;;;6.22;3.27;;;0.20;99.90;;;;;;1969415;73;21048;-76
2021/04/09 00:58:35;;;;;;;15.32;3.60;;;0.20;99.90;;;;;;1969377;73;21197;-75
2021/04/09 01:01:02;;;;;;;7.45;3.85;;;0.20;99.90;;;;;;1969454;73;21057;-77
2021/04/09 01:03:28;;;;;;;4.67;2.70;;;0.20;99.90;;;;;;1969409;73;21057;-76
2021/04/09 01:05:54;;;;;;;6.53;3.50;;;0.20;99.90;;;;;;1969283;73;21123;-76
2021/04/09 01:08:20;;;;;;;7.45;3.00;;;0.10;99.90;;;;;;1969368;73;21030;-76
2021/04/09 01:10:46;;;;;;;3.42;2.70;;;0.20;99.90;;;;;;1969473;73;21072;-75
2021/04/09 01:13:12;;;;;;;4.62;3.05;;;0.10;99.90;;;;;;1969565;73;21052;-76
2021/04/09 01:15:39;;;;;;;5.20;2.80;;;0.00;99.90;;;;;;1969549;73;21168;-77
2021/04/09 01:18:05;;;;;;;2.85;2.55;;;0.00;99.90;;;;;;1969529;73;21069;-76
2021/04/09 01:20:31;;;;;;;4.95;3.25;;;0.00;99.90;;;;;;1969629;73;21053;-77
2021/04/09 01:22:57;;;;;;;4.30;2.62;;;-0.10;99.90;;;;;;1969530;73;21096;-75
2021/04/09 01:25:23;;;;;;;4.05;3.08;;;-0.10;99.90;;;;;;1969564;73;21033;-76
2021/04/09 01:27:50;;;;;;;6.45;3.25;;;-0.10;99.90;;;;;;1969603;73;21042;-76
2021/04/09 01:30:16;;;;;;;4.00;2.98;;;-0.10;99.90;;;;;;1969415;73;21081;-76
2021/04/09 01:32:42;;;;;;;8.38;3.80;;;-0.10;99.90;;;;;;1969366;73;21057;-76
2021/04/09 01:35:09;;;;;;;6.00;3.60;;;-0.20;99.90;;;;;;1969257;73;21162;-76
2021/04/09 01:37:35;;;;;;;8.85;4.12;;;-0.10;99.90;;;;;;1969276;73;21126;-75
2021/04/09 01:40:01;;;;;;;3.85;2.75;;;0.00;99.90;;;;;;1969276;73;21060;-76
2021/04/09 01:42:27;;;;;;;6.45;3.55;;;0.00;99.90;;;;;;1969307;73;21104;-76
2021/04/09 01:44:53;;;;;;;5.00;2.80;;;0.00;99.90;;;;;;1969226;73;21095;-76
2021/04/09 01:47:20;;;;;;;6.85;2.92;;;-0.10;99.90;;;;;;1969198;73;21145;-76
2021/04/09 01:49:46;;;;;;;4.70;2.75;;;-0.10;99.90;;;;;;1969325;73;21034;-75
2021/04/09 01:52:12;;;;;;;6.33;3.25;;;-0.10;99.90;;;;;;1969252;73;21535;-75
2021/04/09 01:54:38;;;;;;;6.28;3.75;;;-0.20;99.90;;;;;;1969384;73;21579;-76
2021/04/09 01:57:04;;;;;;;4.60;2.98;;;-0.20;99.90;;;;;;1969229;73;21473;-75
2021/04/09 01:59:30;;;;;;;4.30;2.98;;;-0.20;99.90;;;;;;1969240;73;21434;-76
2021/04/09 02:01:56;;;;;;;6.85;3.27;;;-0.20;99.90;;;;;;1969353;73;21057;-76
2021/04/09 02:04:22;;;;;;;5.08;3.35;;;-0.30;99.90;;;;;;1969245;73;21021;-76
2021/04/09 02:06:49;;;;;;;4.58;2.87;;;-0.30;99.90;;;;;;1969237;73;21021;-75
2021/04/09 02:09:15;;;;;;;5.12;2.72;;;-0.20;99.90;;;;;;1969293;73;21111;-76
2021/04/09 02:11:41;;;;;;;5.65;3.12;;;-0.30;99.90;;;;;;1969336;73;21127;-76
2021/04/09 02:14:07;;;;;;;5.17;2.95;;;-0.30;99.90;;;;;;1969320;73;21081;-76
2021/04/09 02:16:33;;;;;;;10.18;3.80;;;-0.30;99.90;;;;;;1969287;73;21130;-76
2021/04/09 02:18:59;;;;;;;4.87;3.37;;;-0.40;99.90;;;;;;1969370;73;21061;-76
2021/04/09 02:21:25;;;;;;;5.85;3.50;;;-0.30;99.90;;;;;;1969158;73;21064;-77
2021/04/09 02:23:51;;;;;;;4.12;3.30;;;-0.30;99.90;;;;;;1969477;73;21555;-77
2021/04/09 02:26:18;;;;;;;7.30;3.72;;;-0.40;99.90;;;;;;1969298;73;21469;-75
2021/04/09 02:28:44;;;;;;;3.95;3.30;;;-0.40;99.90;;;;;;1969359;73;21469;-75
2021/04/09 02:31:14;;;;;;;6.70;3.40;;;-0.50;99.90;;;;;;1969236;73;21497;-75
2021/04/09 02:33:38;;;;;;;6.33;3.42;;;-0.50;99.90;;;;;;1968613;73;21138;-76
2021/04/09 02:36:04;;;;;;;5.10;3.40;;;-0.50;99.90;;;;;;1969230;73;21030;-76
2021/04/09 02:38:30;;;;;;;8.13;3.52;;;-0.50;99.90;;;;;;1969248;73;21459;-76
2021/04/09 02:40:56;;;;;;;5.78;3.37;;;-0.50;99.90;;;;;;1969334;73;21484;-76
2021/04/09 02:43:22;;;;;;;4.25;3.37;;;-0.60;99.90;;;;;;1969320;73;21535;-76
2021/04/09 02:45:48;;;;;;;5.75;3.33;;;-0.50;99.90;;;;;;1969296;73;21473;-76
2021/04/09 02:48:14;;;;;;;5.10;3.50;;;-0.50;99.90;;;;;;1969193;73;21030;-76
2021/04/09 02:50:40;;;;;;;6.50;3.42;;;-0.50;99.90;;;;;;1972332;72;21068;-77
2021/04/09 02:53:07;;;;;;;5.20;3.42;;;-0.50;99.90;;;;;;1978587;72;21118;-76
2021/04/09 02:55:33;;;;;;;11.08;3.50;;;-0.50;99.90;;;;;;1969209;73;21087;-76
2021/04/09 02:57:59;;;;;;;7.37;4.00;;;-0.50;99.90;;;;;;1969137;73;21126;-76
2021/04/09 03:00:25;;;;;;;5.42;3.77;;;-0.60;99.90;;;;;;1969247;73;21030;-76
2021/04/09 03:02:51;;;;;;;7.08;4.12;;;-0.60;99.90;;;;;;1969229;73;21057;-76
2021/04/09 03:05:18;;;;;;;5.55;3.40;;;-0.60;99.90;;;;;;1971663;72;21120;-76
2021/04/09 03:07:44;;;;;;;4.83;3.45;;;-0.60;99.90;;;;;;1968108;72;21460;-76
2021/04/09 03:10:10;;;;;;;7.28;3.77;;;-0.70;99.90;;;;;;1969140;73;21466;-76
2021/04/09 03:12:38;;;;;;;4.42;3.25;;;-0.70;99.90;;;;;;1971568;72;21442;-77
2021/04/09 03:15:04;;;;;;;8.33;4.12;;;-0.70;99.90;;;;;;1969243;73;21053;-77
2021/04/09 03:17:30;;;;;;;5.67;2.83;;;-0.60;99.90;;;;;;1971700;72;21061;-76
2021/04/09 03:19:56;;;;;;;7.67;3.37;;;-0.60;99.90;;;;;;1969285;73;21064;-76
2021/04/09 03:22:22;;;;;;;5.87;3.37;;;-0.60;99.90;;;;;;1969158;73;21122;-76
2021/04/09 03:24:48;;;;;;;8.48;3.85;;;-0.60;99.90;;;;;;1969293;73;21493;-76
2021/04/09 03:27:15;;;;;;;5.90;3.02;;;-0.50;99.90;;;;;;1969255;73;21503;-76
2021/04/09 03:29:41;;;;;;;5.80;2.70;;;-0.50;99.90;;;;;;1969300;73;21130;-76
2021/04/09 03:32:07;;;;;;;4.08;2.92;;;-0.50;99.90;;;;;;1969209;73;21104;-76
2021/04/09 03:34:33;;;;;;;6.72;3.75;;;-0.60;99.90;;;;;;1969374;73;21488;-77
2021/04/09 03:37:00;;;;;;;7.67;3.80;;;-0.60;99.90;;;;;;1969297;73;21434;-76
2021/04/09 03:39:26;;;;;;;5.90;3.70;;;-0.70;99.90;;;;;;1969303;73;21451;-75
2021/04/09 03:41:52;;;;;;;5.55;2.98;;;-0.60;99.90;;;;;;1969162;73;21601;-77
2021/04/09 03:44:18;;;;;;;6.12;3.80;;;-0.70;99.90;;;;;;1969382;73;21126;-76
2021/04/09 03:46:44;;;;;;;4.80;2.92;;;-0.70;99.90;;;;;;1969302;73;21057;-76
2021/04/09 03:49:10;;;;;;;6.28;3.83;;;-0.60;99.90;;;;;;1969279;73;21167;-76
2021/04/09 03:51:36;;;;;;;5.90;3.15;;;-0.70;99.90;;;;;;1969148;73;21030;-77
2021/04/09 03:54:02;;;;;;;5.20;2.98;;;-0.70;99.90;;;;;;1969355;73;21049;-77
2021/04/09 03:56:29;;;;;;;6.58;3.67;;;-0.70;99.90;;;;;;1969159;73;21057;-76
2021/04/09 03:58:55;;;;;;;5.72;3.25;;;-0.70;99.90;;;;;;1969208;73;21134;-77
2021/04/09 04:01:21;;;;;;;7.83;3.95;;;-0.70;99.90;;;;;;1969407;73;21160;-76
2021/04/09 04:03:47;;;;;;;5.17;3.25;;;-0.70;99.90;;;;;;1969242;73;21053;-76
2021/04/09 04:06:13;;;;;;;5.15;3.50;;;-0.70;99.90;;;;;;1969258;73;21033;-77
2021/04/09 04:08:39;;;;;;;4.90;3.37;;;-0.70;99.90;;;;;;1969346;73;21057;-76
2021/04/09 04:11:05;;;;;;;4.30;2.92;;;-0.80;99.90;;;;;;1969333;73;21096;-76
2021/04/09 04:13:31;;;;;;;6.65;3.70;;;-0.80;99.90;;;;;;1969430;73;21034;-76
2021/04/09 04:15:58;;;;;;;7.20;3.58;;;-0.70;99.90;;;;;;1969551;73;21112;-76
2021/04/09 04:18:24;;;;;;;5.92;3.47;;;-0.70;99.90;;;;;;1969554;73;21041;-76
2021/04/09 04:20:50;;;;;;;6.60;3.67;;;-0.70;99.90;;;;;;1969512;73;21469;-77
2021/04/09 04:23:16;;;;;;;7.62;3.85;;;-0.70;99.90;;;;;;1969495;73;21450;-76
2021/04/09 04:25:42;;;;;;;15.05;3.50;;;-0.80;99.90;;;;;;1969467;73;21477;-77
2021/04/09 04:28:08;;;;;;;10.55;4.20;;;-0.80;99.90;;;;;;1969703;73;21185;-75
2021/04/09 04:30:34;;;;;;;5.00;2.92;;;-0.80;99.90;;;;;;1969444;73;21135;-77
2021/04/09 04:33:00;;;;;;;4.95;3.65;;;-0.80;99.90;;;;;;1969562;73;21060;-76
2021/04/09 04:35:26;;;;;;;7.47;3.72;;;-0.80;99.90;;;;;;1969382;73;21029;-77
2021/04/09 04:37:53;;;;;;;7.95;3.30;;;-0.80;99.90;;;;;;1969573;73;21053;-76
2021/04/09 04:40:19;;;;;;;4.47;3.50;;;-0.80;99.90;;;;;;1969441;73;21057;-77
2021/04/09 04:42:45;;;;;;;15.43;3.42;;;-0.80;99.90;;;;;;1969671;73;21053;-78
2021/04/09 04:45:12;;;;;;;8.53;4.28;;;-0.90;99.90;;;;;;1969795;73;21126;-77
2021/04/09 04:47:38;;;;;;;8.00;3.90;;;-0.80;99.90;;;;;;1972077;72;21112;-77
2021/04/09 04:50:04;;;;;;;5.78;3.83;;;-0.80;99.90;;;;;;1969241;72;21068;-77
2021/04/09 04:52:30;;;;;;;6.90;3.80;;;-0.80;99.90;;;;;;1968921;73;21026;-78
2021/04/09 04:54:57;;;;;;;7.92;3.67;;;-0.80;99.90;;;;;;1969452;73;21032;-76
2021/04/09 04:57:25;;;;;;;4.78;3.30;;;-0.90;99.90;;;;;;1969473;73;21068;-77
2021/04/09 04:59:50;;;;;;;7.42;3.80;;;-0.90;99.90;;;;;;1969490;73;21219;-77
2021/04/09 05:02:17;;;;;;;8.33;3.85;;;-0.90;99.90;;;;;;1969672;73;21090;-76
2021/04/09 05:04:43;;;;;;;3.80;2.75;;;-0.80;99.90;;;;;;1969556;73;21068;-76
2021/04/09 05:07:09;;;;;;;5.92;3.60;;;-0.80;99.90;;;;;;1969542;73;21130;-77
2021/04/09 05:09:35;;;;;;;9.10;4.17;;;-0.70;99.90;;;;;;1969448;73;21041;-77
2021/04/09 05:12:01;;;;;;;7.22;3.45;;;-0.70;99.90;;;;;;1969547;73;21053;-77
2021/04/09 05:14:27;;;;;;;7.72;3.77;;;-0.60;99.90;;;;;;1971819;72;21071;-77
2021/04/09 05:16:53;;;;;;;7.42;3.90;;;-0.60;99.90;;;;;;1969439;72;21566;-77
2021/04/09 05:19:20;;;;;;;17.20;4.42;;;-0.60;99.90;;;;;;1969469;73;21597;-77
2021/04/09 05:21:46;;;;;;;4.40;3.35;;;-0.50;99.90;;;;;;1974098;72;21065;-77
2021/04/09 05:24:12;;;;;;;9.30;4.10;;;-0.40;99.90;;;;;;1969671;72;21119;-76
2021/04/09 05:26:38;;;;;;;8.15;4.33;;;-0.40;99.90;;;;;;1970400;72;21124;-77
2021/04/09 05:29:06;;;;;;;12.82;3.27;;;-0.20;99.90;;;;;;1968419;72;21150;-76
2021/04/09 05:31:32;;;;;;;5.42;3.87;;;-0.20;99.90;;;;;;1969449;73;21057;-77
2021/04/09 05:33:58;;;;;;;5.97;4.17;;;-0.20;99.90;;;;;;1969500;73;21088;-76
2021/04/09 05:36:24;;;;;;;6.45;3.50;;;-0.10;99.90;;;;;;1969418;73;21127;-76
2021/04/09 05:38:50;;;;;;;8.70;3.80;;;0.00;99.90;;;;;;1969459;73;21053;-77
2021/04/09 05:41:16;;;;;;;6.87;3.87;;;0.00;99.90;;;;;;1969494;73;21057;-77
2021/04/09 05:43:42;;;;;;;10.35;3.85;;;0.10;99.90;;;;;;1969354;73;21139;-77
2021/04/09 05:46:09;;;;;;;6.55;4.40;;;0.10;99.90;;;;;;1969425;73;21460;-76
2021/04/09 05:48:35;;;;;;;16.27;4.22;;;0.20;99.90;;;;;;1969430;73;21421;-76
2021/04/09 05:51:01;;;;;;;5.90;3.83;;;0.40;99.90;;;;;;1969552;73;21473;-77
2021/04/09 05:53:27;;;;;;;11.80;4.67;;;0.50;99.90;;;;;;1969279;73;21119;-77
2021/04/09 05:55:53;;;;;;;8.08;3.87;;;0.50;99.90;;;;;;1969457;73;21057;-77
2021/04/09 05:58:19;;;;;;;7.90;4.25;;;0.60;99.90;;;;;;1969247;73;21119;-76
2021/04/09 06:00:45;;;;;;;9.20;4.10;;;0.70;99.90;;;;;;1969661;73;21049;-76
2021/04/09 06:03:11;;;;;;;7.65;4.12;;;0.60;99.90;;;;;;1969324;73;21138;-79
2021/04/09 06:05:38;;;;;;;13.53;4.33;;;0.80;99.90;;;;;;1969352;73;21319;-75
2021/04/09 06:08:06;;;;;;;8.60;4.17;;;0.90;99.90;;;;;;1969186;72;21033;-75
2021/04/09 06:10:32;;;;;;;6.65;4.62;;;1.00;99.90;;;;;;1969108;73;21425;-75
2021/04/09 06:12:58;;;;;;;7.45;4.20;;;1.00;99.90;;;;;;1969274;73;21548;-75
2021/04/09 06:15:24;;;;;;;7.75;4.12;;;1.20;99.90;;;;;;1969416;73;21571;-74
2021/04/09 06:17:51;;;;;;;9.95;4.28;;;1.40;99.90;;;;;;1969676;73;21049;-75
2021/04/09 06:20:17;;;;;;;12.82;3.98;;;1.30;99.90;;;;;;1969430;73;21130;-77
2021/04/09 06:22:43;;;;;;;7.85;4.33;;;1.40;99.90;;;;;;1969214;73;21130;-76
2021/04/09 06:25:09;;;;;;;8.75;4.87;;;1.40;99.90;;;;;;1969446;73;21493;-76
2021/04/09 06:27:35;;;;;;;8.78;4.75;;;1.40;99.90;;;;;;1969314;73;21152;-77
2021/04/09 06:30:01;;;;;;;14.15;3.87;;;1.50;99.90;;;;;;1969279;73;21065;-75
2021/04/09 06:32:27;;;;;;;9.88;4.60;;;1.60;99.90;;;;;;1969244;73;21049;-76
2021/04/09 06:34:54;;;;;;;9.23;4.17;;;1.70;99.90;;;;;;1969261;73;21034;-76
2021/04/09 06:37:20;;;;;;;11.25;4.15;;;1.70;99.90;;;;;;1969482;73;21429;-75
2021/04/09 06:39:46;;;;;;;10.58;4.47;;;1.90;99.90;;;;;;1969375;73;21467;-75
2021/04/09 06:42:13;;;;;;;8.60;4.08;;;2.00;99.90;;;;;;1969386;73;21542;-75
2021/04/09 06:44:39;;;;;;;6.70;3.47;;;2.00;99.90;;;;;;1969217;73;21093;-76
2021/04/09 06:47:05;;;;;;;6.28;3.70;;;2.10;99.90;;;;;;1969304;73;21054;-74
2021/04/09 06:49:31;;;;;;;9.25;4.62;;;2.20;99.90;;;;;;1969316;73;21135;-75
2021/04/09 06:51:57;;;;;;;14.87;4.80;;;2.20;99.90;;;;;;1969810;73;21060;-76
2021/04/09 06:54:23;;;;;;;6.92;4.12;;;2.30;99.90;;;;;;1970361;73;21034;-75
2021/04/09 06:56:49;;;;;;;8.05;3.83;;;2.50;99.90;;;;;;1971490;73;21100;-77
2021/04/09 06:59:16;;;;;;;9.13;3.77;;;2.70;99.90;;;;;;1971588;73;21023;-77
2021/04/09 07:01:42;;;;;;;5.50;3.65;;;2.80;99.90;;;;;;1971734;71;21041;-76
2021/04/09 07:04:08;;;;;;;9.38;4.30;;;2.80;99.90;;;;;;1972070;73;21162;-76
2021/04/09 07:06:34;;;;;;;8.88;4.22;;;2.80;99.90;;;;;;1972040;73;21021;-76
2021/04/09 07:09:00;;;;;;;8.73;4.83;;;2.90;99.90;;;;;;1971428;73;21055;-77
2021/04/09 07:11:28;;;;;;;7.12;3.72;;;3.10;99.90;;;;;;1971204;73;21029;-77
2021/04/09 07:13:56;;;;;;;7.37;3.77;;;3.20;99.90;;;;;;1971686;73;21123;-77
2021/04/09 07:16:22;;;;;;;11.40;4.15;;;3.40;99.90;;;;;;1970317;73;21053;-76
2021/04/09 07:18:48;;;;;;;8.90;3.20;;;3.60;99.90;;;;;;1971005;73;21190;-76
2021/04/09 07:21:14;;;;;;;6.58;4.42;;;3.70;99.90;;;;;;1970069;73;20986;-78
2021/04/09 07:23:40;;;;;;;6.90;4.12;;;3.80;99.90;;;;;;1969737;73;21421;-77
2021/04/09 07:26:06;;;;;;;11.18;4.33;;;3.80;99.90;;;;;;1969758;73;21570;-76
2021/04/09 07:28:34;;;;;;;6.60;3.65;;;3.70;99.90;;;;;;1969547;73;21457;-76
2021/04/09 07:31:00;;;;;;;5.92;4.12;;;4.00;99.90;;;;;;1969407;73;21264;-77
2021/04/09 07:33:26;;;;;;;5.47;3.67;;;4.30;99.90;;;;;;1969449;73;21061;-75
2021/04/09 07:35:52;;;;;;;7.50;4.37;;;4.40;99.90;;;;;;1969442;73;21390;-73
2021/04/09 07:38:19;;;;;;;10.70;4.03;;;4.50;99.90;;;;;;1969344;73;21610;-78
2021/04/09 07:40:46;;;;;;;12.07;4.28;;;4.70;99.90;;;;;;1969260;73;21052;-76
2021/04/09 07:43:13;;;;;;;7.42;3.85;;;5.00;99.90;;;;;;1969852;73;21026;-77
2021/04/09 07:45:39;;;;;;;8.90;4.10;;;5.20;99.90;;;;;;1969410;73;21497;-78
2021/04/09 07:48:05;;;;;;;13.78;4.12;;;5.40;99.90;;;;;;1969256;73;21030;-78
2021/04/09 07:50:31;;;;;;;4.62;3.02;;;5.70;99.90;;;;;;1969244;73;21103;-77
2021/04/09 07:52:57;;;;;;;8.63;4.03;;;5.80;99.90;;;;;;1969539;73;21052;-78
2021/04/09 07:55:23;;;;;;;13.85;4.12;;;6.00;99.90;;;;;;1966990;72;21562;-79
2021/04/09 07:57:50;;;;;;;7.12;3.95;;;5.90;99.90;;;;;;1969433;73;21476;-76
2021/04/09 08:00:16;;;;;;;6.75;3.33;;;6.10;99.90;;;;;;1969350;73;21526;-77
2021/04/09 08:02:42;;;;;;;7.67;3.55;;;6.00;99.90;;;;;;1969402;73;21352;-77
2021/04/09 08:05:08;;;;;;;11.60;3.30;;;6.20;99.90;;;;;;1969315;73;21045;-77
2021/04/09 08:07:34;;;;;;;8.80;4.37;;;6.20;99.90;;;;;;1971654;72;21041;-77
2021/04/09 08:10:00;;;;;;;11.60;3.80;;;6.20;99.90;;;;;;1969385;73;21053;-76
2021/04/09 08:12:26;;;;;;;8.90;3.42;;;6.50;99.90;;;;;;1969272;73;21049;-75
2021/04/09 08:14:52;;;;;;;6.75;3.83;;;6.70;99.90;;;;;;1969444;73;21038;-79
2021/04/09 08:17:19;;;;;;;6.17;3.40;;;6.90;99.90;;;;;;1969525;73;21069;-79
2021/04/09 08:19:46;;;;;;;5.85;3.12;;;7.30;99.90;;;;;;1969508;73;21434;-77
2021/04/09 08:22:12;;;;;;;13.53;3.45;;;7.40;99.90;;;;;;1969406;73;21115;-77
2021/04/09 08:24:38;;;;;;;7.35;3.30;;;7.40;99.90;;;;;;1969675;73;21085;-77
2021/04/09 08:27:04;;;;;;;7.28;3.50;;;7.40;99.90;;;;;;1970163;73;21099;-77
2021/04/09 08:29:31;;;;;;;5.33;3.42;;;7.60;99.90;;;;;;1970296;73;21127;-77
2021/04/09 08:31:57;;;;;;;6.50;3.33;;;7.80;99.90;;;;;;1970054;73;21053;-78
2021/04/09 08:34:23;;;;;;;8.88;4.17;;;8.00;99.90;;;;;;1969928;72;21053;-78
2021/04/09 08:36:49;;;;;;;9.68;4.12;;;8.10;99.90;;;;;;1969889;73;21026;-78
2021/04/09 08:39:17;;;;;;;12.05;3.33;;;8.10;99.90;;;;;;1969959;73;21041;-78
2021/04/09 08:41:44;;;;;;;8.58;3.80;;;8.60;99.90;;;;;;1970008;73;21493;-78
2021/04/09 08:44:10;;;;;;;8.95;3.42;;;8.80;99.90;;;;;;1969842;73;21057;-78
2021/04/09 08:46:36;;;;;;;6.95;3.67;;;9.00;99.90;;;;;;1969873;73;21049;-78
2021/04/09 08:49:05;;;;;;;7.80;3.92;;;9.20;99.90;;;;;;1970005;73;21045;-79
2021/04/09 08:51:31;;;;;;;14.60;3.50;;;9.30;99.90;;;;;;1969775;73;21026;-78
2021/04/09 08:53:57;;;;;;;13.35;3.22;;;9.60;99.90;;;;;;1969969;73;21045;-79
2021/04/09 08:56:23;;;;;;;6.08;3.17;;;9.60;99.90;;;;;;1969680;73;21048;-77
2021/04/09 08:58:50;;;;;;;8.75;2.60;;;9.60;99.90;;;;;;1969988;73;21122;-75
2021/04/09 09:01:16;;;;;;;6.22;2.92;;;9.70;99.90;;;;;;1970135;73;21026;-75
2021/04/09 09:03:42;;;;;;;5.78;2.62;;;9.70;99.90;;;;;;1970023;73;21053;-80
2021/04/09 09:06:08;;;;;;;7.53;2.55;;;9.70;99.90;;;;;;1970076;73;21060;-77
2021/04/09 09:08:34;;;;;;;9.10;3.35;;;10.00;99.90;;;;;;1969923;73;21025;-80
2021/04/09 09:11:02;;;;;;;8.25;2.75;;;10.10;99.90;;;;;;1969861;73;21141;-78
2021/04/09 09:13:28;;;;;;;5.37;2.95;;;10.20;99.90;;;;;;1969825;73;21715;-79
2021/04/09 09:15:54;;;;;;;4.53;2.60;;;10.40;99.90;;;;;;1969879;73;21049;-78
2021/04/09 09:18:21;;;;;;;7.75;2.87;;;10.40;99.90;;;;;;1969964;73;21119;-80
2021/04/09 09:20:47;;;;;;;9.03;3.08;;;10.50;99.90;;;;;;1969969;73;21126;-81
2021/04/09 09:23:13;;;;;;;8.43;2.92;;;10.90;99.90;;;;;;1970059;73;21045;-81
2021/04/09 09:25:41;;;;;;;6.30;2.72;;;11.10;99.90;;;;;;1969965;73;21116;-80
2021/04/09 09:28:07;;;;;;;5.45;3.05;;;11.20;99.90;;;;;;1969939;73;21057;-80
2021/04/09 09:30:37;;;;;;;5.78;3.10;;;11.20;99.90;;;;;;1969851;73;21054;-79
2021/04/09 09:33:03;;;;;;;8.55;4.58;;;11.40;99.90;;;;;;1969973;73;21030;-81
2021/04/09 09:35:31;;;;;;;6.20;3.42;;;11.40;99.90;;;;;;1969964;73;21051;-80
2021/04/09 09:37:59;;;;;;;10.18;3.45;;;11.50;99.90;;;;;;1969847;73;21033;-79
2021/04/09 09:40:25;;;;;;;5.60;2.90;;;11.40;99.90;;;;;;1969964;72;21118;-81
2021/04/09 09:42:51;;;;;;;7.15;2.95;;;11.30;99.90;;;;;;1970087;73;21046;-78
2021/04/09 09:45:17;;;;;;;7.30;3.15;;;11.50;99.90;;;;;;1970176;73;21049;-78
2021/04/09 09:47:48;;;;;;;4.45;2.72;;;11.40;99.90;;;;;;1970062;73;21049;-77
2021/04/09 09:50:14;;;;;;;10.90;3.25;;;11.60;99.90;;;;;;1970101;73;21052;-78
2021/04/09 09:52:41;;;;;;;5.28;3.10;;;11.90;99.90;;;;;;1969931;73;21054;-77
2021/04/09 09:55:07;;;;;;;5.25;3.02;;;12.00;99.90;;;;;;1969773;73;21018;-78
2021/04/09 09:57:33;;;;;;;6.83;2.98;;;11.80;99.90;;;;;;1969972;73;21049;-77
2021/04/09 09:59:59;;;;;;;10.15;3.00;;;11.90;99.90;;;;;;1969840;73;21088;-76
2021/04/09 10:02:25;;;;;;;8.70;2.55;;;12.20;99.90;;;;;;1969857;73;21054;-78
2021/04/09 10:04:51;;;;;;;9.65;2.55;;;12.80;99.90;;;;;;1969933;73;21041;-77
2021/04/09 10:07:17;;;;;;;4.28;2.33;;;12.70;99.20;;;;;;1969979;73;21045;-78
2021/04/09 10:09:43;;;;;;;4.80;2.40;;;13.00;99.10;;;;;;1969844;73;21049;-78
2021/04/09 10:12:09;;;;;;;5.00;2.45;;;13.20;97.90;;;;;;1969909;73;21026;-78
2021/04/09 10:14:36;;;;;;;5.15;2.75;;;13.30;98.10;;;;;;1969980;73;21119;-78
2021/04/09 10:17:02;;;;;;;7.62;2.83;;;13.40;97.10;;;;;;1969942;73;21058;-78
2021/04/09 10:19:28;;;;;;;3.47;2.27;;;13.30;97.10;;;;;;1970070;73;21104;-78
2021/04/09 10:21:54;;;;;;;8.33;3.00;;;13.60;97.70;;;;;;1969882;73;21031;-78
2021/04/09 10:24:20;;;;;;;4.72;2.50;;;14.00;95.50;;;;;;1972390;72;21577;-77
2021/04/09 10:26:46;;;;;;;7.80;2.87;;;14.00;94.40;;;;;;1972339;72;21189;-77
2021/04/09 10:29:13;;;;;;;5.33;2.52;;;14.00;94.20;;;;;;1969890;73;21053;-78
2021/04/09 10:31:41;;;;;;;7.22;2.87;;;14.20;94.50;;;;;;1971505;72;21122;-77
2021/04/09 10:34:07;;;;;;;6.42;2.30;;;14.00;93.00;;;;;;1971204;73;21025;-77
2021/04/09 10:36:33;;;;;;;5.92;2.40;;;13.90;93.00;;;;;;1968048;72;21049;-78
2021/04/09 10:38:59;;;;;;;4.95;2.60;;;14.20;92.30;;;;;;1969933;72;21115;-78
2021/04/09 10:41:25;;;;;;;4.28;2.02;;;14.20;92.90;;;;;;1969900;73;21054;-77
2021/04/09 10:43:51;;;;;;;5.22;2.50;;;14.60;91.50;;;;;;1966446;72;21029;-76
2021/04/09 10:46:17;;;;;;;5.22;2.70;;;14.90;90.50;;;;;;1969844;73;21045;-77
2021/04/09 10:48:43;;;;;;;4.12;1.85;;;15.00;87.00;;;;;;1968807;72;21065;-77
2021/04/09 10:51:09;;;;;;;2.87;1.98;;;15.00;87.00;;;;;;1969843;73;21113;-79
2021/04/09 10:53:36;;;;;;;7.47;2.10;;;15.40;87.30;;;;;;1969877;73;21029;-77
2021/04/09 10:56:02;;;;;;;5.50;1.90;;;15.10;84.30;;;;;;1969778;73;21057;-77
2021/04/09 10:58:28;;;;;;;5.47;2.20;;;14.90;85.10;;;;;;1969936;73;21049;-78
2021/04/09 11:00:54;;;;;;;5.40;2.30;;;15.10;84.20;;;;;;1969882;73;21057;-77
2021/04/09 11:03:20;;;;;;;6.55;2.27;;;15.00;82.20;;;;;;1969955;73;21030;-83
2021/04/09 11:05:46;;;;;;;4.22;1.95;;;15.00;78.10;;;;;;1970102;73;21049;-79
2021/04/09 11:08:12;;;;;;;7.80;1.87;;;14.90;78.70;;;;;;1969853;73;21134;-77
2021/04/09 11:10:38;;;;;;;2.27;1.32;;;15.30;74.30;;;;;;1969834;73;21155;-79
2021/04/09 11:13:05;;;;;;;0.75;0.75;;;15.40;68.60;;;;;;1969907;73;21134;-78
2021/04/09 11:15:31;;;;;;;2.40;1.00;;;15.20;67.40;;;;;;1969843;73;21142;-78
2021/04/09 11:17:58;;;;;;;35.20;3.90;;;14.80;67.40;;;;;;1970064;73;21066;-80
2021/04/09 11:20:24;;;;;;;8.43;1.98;;;14.70;66.40;;;;;;1970245;73;21068;-80
2021/04/09 11:22:50;;;;;;;1.62;1.40;;;14.50;67.00;;;;;;1970028;73;21081;-77
2021/04/09 11:25:16;;;;;;;3.22;1.67;;;14.50;67.20;;;;;;1970005;73;21138;-79
2021/04/09 11:27:44;;;;;;;3.67;0.82;;;14.60;67.50;;;;;;1970151;73;21134;-79
2021/04/09 11:30:10;;;;;;;3.08;1.35;;;14.60;65.00;;;;;;1969854;73;21193;-78
2021/04/09 11:32:36;;;;;;;2.77;1.10;;;14.80;65.70;;;;;;1969887;73;21138;-78
2021/04/09 11:35:02;;;;;;;2.58;1.42;;;15.00;63.90;;;;;;1969792;73;21053;-79
2021/04/09 11:37:28;;;;;;;4.22;1.35;;;14.90;63.70;;;;;;1969761;73;21053;-79
2021/04/09 11:39:54;;;;;;;41.58;3.25;;;14.90;62.50;;;;;;1969816;73;21049;-78
2021/04/09 11:42:20;;;;;;;17.75;1.57;;;14.90;62.40;;;;;;1969877;73;21038;-79
2021/04/09 11:44:47;;;;;;;2.33;1.20;;;15.10;62.30;;;;;;1969840;73;21053;-79
2021/04/09 11:47:13;;;;;;;1.85;1.12;;;15.20;61.90;;;;;;1969982;73;21124;-79
2021/04/09 11:49:43;;;;;;;1.32;1.12;;;15.40;61.90;;;;;;1970022;73;21053;-80
2021/04/09 11:52:23;;;;;;;1.95;0.90;;;15.50;60.80;;;;;;1968962;73;21446;-80
2021/04/09 11:54:49;;;;;;;2.37;1.00;;;15.50;60.80;;;;;;1969562;73;21104;-80
2021/04/09 11:57:15;;;;;;;32.13;4.30;;;15.50;60.60;;;;;;1969994;73;21053;-79
2021/04/09 11:59:42;;;;;;;10.00;1.30;;;15.70;60.30;;;;;;1969972;73;21057;-78
2021/04/09 12:02:08;;;;;;;2.90;0.95;;;15.80;59.50;;;;;;1970006;73;21056;-79
2021/04/09 12:04:34;;;;;;;1.27;0.90;;;16.10;59.40;;;;;;1969951;73;21060;-79
2021/04/09 12:07:00;;;;;;;6.12;1.20;;;16.60;58.30;;;;;;1969966;73;21524;-78
2021/04/09 12:09:26;;;;;;;1.77;1.00;;;16.70;57.50;;;;;;1969750;73;21514;-79
2021/04/09 12:11:52;;;;;;;2.02;0.90;;;16.80;58.00;;;;;;1969973;73;21065;-78
2021/04/09 12:14:18;;;;;;;1.30;1.00;;;16.90;56.60;;;;;;1969918;73;21034;-78
2021/04/09 12:16:45;;;;;;;3.00;1.17;;;17.00;56.80;;;;;;1969709;73;21045;-77
2021/04/09 12:19:11;;;;;;;1.45;1.02;;;17.70;55.70;;;;;;1969971;73;21057;-78
2021/04/09 12:21:38;;;;;;;2.40;0.90;;;17.90;53.80;;;;;;1969823;73;21470;-78
2021/04/09 12:24:05;;;;;;;1.22;0.80;;;18.30;53.10;;;;;;1970009;73;21030;-77
2021/04/09 12:26:31;;;;;;;2.15;1.07;;;18.40;52.50;;;;;;1969817;73;21496;-78
2021/04/09 12:28:57;;;;;;;4.05;1.00;;;18.20;52.90;;;;;;1969925;73;21558;-79
2021/04/09 12:31:23;;;;;;;3.10;0.85;;;18.30;53.30;;;;;;1969664;73;21551;-79
2021/04/09 12:33:49;;;;;;;4.87;0.80;;;18.50;51.80;;;;;;1970563;73;21138;-76
2021/04/09 12:36:15;;;;;;;1.80;1.02;;;18.50;52.30;;;;;;1970463;73;21017;-76
2021/04/09 12:38:42;;;;;;;1.40;0.90;;;18.30;52.70;;;;;;1969834;73;21065;-75
2021/04/09 12:41:08;;;;;;;3.98;2.00;;;18.10;51.50;;;;;;1969951;73;21126;-76
2021/04/09 12:43:34;;;;;;;1.52;1.15;;;17.60;55.40;;;;;;1969940;73;21026;-76